sensor_id;sensor_type;location;lat;lon;timestamp;temperature;humidity
7654;DHT22;3869;48.406;10.774;2022-12-07T00:01:19;3.80;99.90
7654;DHT22;3869;48.406;10.774;2022-12-07T00:03:48;3.80;99.90
7654;DHT22;3869;48.406;10.774;2022-12-07T00:06:18;3.70;99.90
7654;DHT22;3869;48.406;10.774;2022-12-07T00:08:46;3.70;99.90
7654;DHT22;3869;48.406;10.774;2022-12-07T00:11:17;3.70;99.90
7654;DHT22;3869;48.406;10.774;2022-12-07T00:13:46;3.70;99.90
7654;DHT22;3869;48.406;10.774;2022-12-07T00:16:15;3.70;99.90
7654;DHT22;3869;48.406;10.774;2022-12-07T00:18:44;3.70;99.90
7654;DHT22;3869;48.406;10.774;2022-12-07T00:21:16;3.80;99.90
7654;DHT22;3869;48.406;10.774;2022-12-07T00:23:45;3.80;99.90
7654;DHT22;3869;48.406;10.774;2022-12-07T00:26:17;3.70;99.90
7654;DHT22;3869;48.406;10.774;2022-12-07T00:28:46;3.80;99.90
7654;DHT22;3869;48.406;10.774;2022-12-07T00:31:15;3.80;99.90
7654;DHT22;3869;48.406;10.774;2022-12-07T00:33:44;3.70;99.90
7654;DHT22;3869;48.406;10.774;2022-12-07T00:36:14;3.80;99.90
7654;DHT22;3869;48.406;10.774;2022-12-07T00:38:42;3.70;99.90
7654;DHT22;3869;48.406;10.774;2022-12-07T00:41:13;3.70;99.90
7654;DHT22;3869;48.406;10.774;2022-12-07T00:43:44;3.60;99.90
7654;DHT22;3869;48.406;10.774;2022-12-07T00:46:13;3.60;99.90
7654;DHT22;3869;48.406;10.774;2022-12-07T00:48:41;3.60;99.90
7654;DHT22;3869;48.406;10.774;2022-12-07T00:51:10;3.60;99.90
7654;DHT22;3869;48.406;10.774;2022-12-07T00:53:39;3.60;99.90
7654;DHT22;3869;48.406;10.774;2022-12-07T00:56:09;3.60;99.90
7654;DHT22;3869;48.406;10.774;2022-12-07T00:58:37;3.50;99.90
7654;DHT22;3869;48.406;10.774;2022-12-07T01:01:08;3.60;99.90
7654;DHT22;3869;48.406;10.774;2022-12-07T01:03:36;3.60;99.90
7654;DHT22;3869;48.406;10.774;2022-12-07T01:06:05;3.50;99.90
7654;DHT22;3869;48.406;10.774;2022-12-07T01:08:34;3.50;99.90
7654;DHT22;3869;48.406;10.774;2022-12-07T01:11:04;3.60;99.90
7654;DHT22;3869;48.406;10.774;2022-12-07T01:13:33;3.60;99.90
7654;DHT22;3869;48.406;10.774;2022-12-07T01:16:03;3.60;99.90
7654;DHT22;3869;48.406;10.774;2022-12-07T01:18:35;3.60;99.90
7654;DHT22;3869;48.406;10.774;2022-12-07T01:21:04;3.60;99.90
7654;DHT22;3869;48.406;10.774;2022-12-07T01:23:34;3.60;99.90
7654;DHT22;3869;48.406;10.774;2022-12-07T01:26:04;3.60;99.90
7654;DHT22;3869;48.406;10.774;2022-12-07T01:28:33;3.50;99.90
7654;DHT22;3869;48.406;10.774;2022-12-07T01:31:03;3.60;99.90
7654;DHT22;3869;48.406;10.774;2022-12-07T01:33:34;3.60;99.90
7654;DHT22;3869;48.406;10.774;2022-12-07T01:36:03;3.60;99.90
7654;DHT22;3869;48.406;10.774;2022-12-07T01:38:32;3.50;99.90
7654;DHT22;3869;48.406;10.774;2022-12-07T01:41:01;3.50;99.90
7654;DHT22;3869;48.406;10.774;2022-12-07T01:43:31;3.50;99.90
7654;DHT22;3869;48.406;10.774;2022-12-07T01:46:00;3.50;99.90
7654;DHT22;3869;48.406;10.774;2022-12-07T01:48:31;3.50;99.90
7654;DHT22;3869;48.406;10.774;2022-12-07T01:51:05;3.50;99.90
7654;DHT22;3869;48.406;10.774;2022-12-07T01:53:36;3.60;99.90
7654;DHT22;3869;48.406;10.774;2022-12-07T01:56:06;3.60;99.90
7654;DHT22;3869;48.406;10.774;2022-12-07T01:58:35;3.60;99.90
7654;DHT22;3869;48.406;10.774;2022-12-07T02:01:04;3.60;99.90
7654;DHT22;3869;48.406;10.774;2022-12-07T02:03:34;3.60;99.90
7654;DHT22;3869;48.406;10.774;2022-12-07T02:06:06;3.60;99.90
7654;DHT22;3869;48.406;10.774;2022-12-07T02:08:35;3.60;99.90
7654;DHT22;3869;48.406;10.774;2022-12-07T02:11:04;3.60;99.90
7654;DHT22;3869;48.406;10.774;2022-12-07T02:13:36;3.60;99.90
7654;DHT22;3869;48.406;10.774;2022-12-07T02:16:12;3.60;99.90
7654;DHT22;3869;48.406;10.774;2022-12-07T02:18:51;3.60;99.90
7654;DHT22;3869;48.406;10.774;2022-12-07T02:21:29;3.60;99.90
7654;DHT22;3869;48.406;10.774;2022-12-07T02:24:14;3.60;99.90
7654;DHT22;3869;48.406;10.774;2022-12-07T02:29:53;3.60;99.90
7654;DHT22;3869;48.406;10.774;2022-12-07T02:32:27;3.70;99.90
7654;DHT22;3869;48.406;10.774;2022-12-07T02:35:02;3.60;99.90
7654;DHT22;3869;48.406;10.774;2022-12-07T02:37:37;3.60;99.90
7654;DHT22;3869;48.406;10.774;2022-12-07T02:40:11;3.60;99.90
7654;DHT22;3869;48.406;10.774;2022-12-07T02:42:44;3.60;99.90
7654;DHT22;3869;48.406;10.774;2022-12-07T02:45:16;3.60;99.90
7654;DHT22;3869;48.406;10.774;2022-12-07T02:47:46;3.50;99.90
7654;DHT22;3869;48.406;10.774;2022-12-07T02:50:14;3.50;99.90
7654;DHT22;3869;48.406;10.774;2022-12-07T02:52:45;3.50;99.90
7654;DHT22;3869;48.406;10.774;2022-12-07T02:55:15;3.50;99.90
7654;DHT22;3869;48.406;10.774;2022-12-07T02:57:54;3.50;99.90
7654;DHT22;3869;48.406;10.774;2022-12-07T03:00:31;3.50;99.90
7654;DHT22;3869;48.406;10.774;2022-12-07T03:03:08;3.40;99.90
7654;DHT22;3869;48.406;10.774;2022-12-07T03:05:50;3.40;99.90
7654;DHT22;3869;48.406;10.774;2022-12-07T03:08:26;3.40;99.90
7654;DHT22;3869;48.406;10.774;2022-12-07T03:10:59;3.40;99.90
7654;DHT22;3869;48.406;10.774;2022-12-07T03:13:34;3.40;99.90
7654;DHT22;3869;48.406;10.774;2022-12-07T03:16:09;3.40;99.90
7654;DHT22;3869;48.406;10.774;2022-12-07T03:18:43;3.50;99.90
7654;DHT22;3869;48.406;10.774;2022-12-07T03:21:16;3.40;99.90
7654;DHT22;3869;48.406;10.774;2022-12-07T03:23:48;3.40;99.90
7654;DHT22;3869;48.406;10.774;2022-12-07T03:26:19;3.40;99.90
7654;DHT22;3869;48.406;10.774;2022-12-07T03:28:52;3.40;99.90
7654;DHT22;3869;48.406;10.774;2022-12-07T03:31:25;3.40;99.90
7654;DHT22;3869;48.406;10.774;2022-12-07T03:33:59;3.40;99.90
7654;DHT22;3869;48.406;10.774;2022-12-07T03:36:33;3.40;99.90
7654;DHT22;3869;48.406;10.774;2022-12-07T03:39:09;3.30;99.90
7654;DHT22;3869;48.406;10.774;2022-12-07T03:41:40;3.30;99.90
7654;DHT22;3869;48.406;10.774;2022-12-07T03:44:12;3.30;99.90
7654;DHT22;3869;48.406;10.774;2022-12-07T03:46:44;3.30;99.90
7654;DHT22;3869;48.406;10.774;2022-12-07T03:49:20;3.30;99.90
7654;DHT22;3869;48.406;10.774;2022-12-07T03:51:54;3.30;99.90
7654;DHT22;3869;48.406;10.774;2022-12-07T03:54:26;3.20;99.90
7654;DHT22;3869;48.406;10.774;2022-12-07T03:56:57;3.20;99.90
7654;DHT22;3869;48.406;10.774;2022-12-07T03:59:26;3.30;99.90
7654;DHT22;3869;48.406;10.774;2022-12-07T04:01:57;3.20;99.90
7654;DHT22;3869;48.406;10.774;2022-12-07T04:04:29;3.20;99.90
7654;DHT22;3869;48.406;10.774;2022-12-07T04:06:57;3.20;99.90
7654;DHT22;3869;48.406;10.774;2022-12-07T04:09:25;3.30;99.90
7654;DHT22;3869;48.406;10.774;2022-12-07T04:11:53;3.30;99.90
7654;DHT22;3869;48.406;10.774;2022-12-07T04:14:21;3.20;99.90
7654;DHT22;3869;48.406;10.774;2022-12-07T04:16:51;3.30;99.90
7654;DHT22;3869;48.406;10.774;2022-12-07T04:19:23;3.30;99.90
7654;DHT22;3869;48.406;10.774;2022-12-07T04:21:51;3.30;99.90
7654;DHT22;3869;48.406;10.774;2022-12-07T04:24:19;3.30;99.90
7654;DHT22;3869;48.406;10.774;2022-12-07T04:26:47;3.30;99.90
7654;DHT22;3869;48.406;10.774;2022-12-07T04:29:16;3.40;99.90
7654;DHT22;3869;48.406;10.774;2022-12-07T04:31:44;3.40;99.90
7654;DHT22;3869;48.406;10.774;2022-12-07T04:34:16;3.40;99.90
7654;DHT22;3869;48.406;10.774;2022-12-07T04:36:47;3.40;99.90
7654;DHT22;3869;48.406;10.774;2022-12-07T04:39:19;3.30;99.90
7654;DHT22;3869;48.406;10.774;2022-12-07T04:41:48;3.30;99.90
7654;DHT22;3869;48.406;10.774;2022-12-07T04:44:16;3.40;99.90
7654;DHT22;3869;48.406;10.774;2022-12-07T04:46:44;3.40;99.90
7654;DHT22;3869;48.406;10.774;2022-12-07T04:49:14;3.40;99.90
7654;DHT22;3869;48.406;10.774;2022-12-07T04:51:43;3.30;99.90
7654;DHT22;3869;48.406;10.774;2022-12-07T04:54:13;3.40;99.90
7654;DHT22;3869;48.406;10.774;2022-12-07T04:56:41;3.30;99.90
7654;DHT22;3869;48.406;10.774;2022-12-07T04:59:09;3.30;99.90
7654;DHT22;3869;48.406;10.774;2022-12-07T05:01:38;3.30;99.90
7654;DHT22;3869;48.406;10.774;2022-12-07T05:04:06;3.30;99.90
7654;DHT22;3869;48.406;10.774;2022-12-07T05:06:35;3.30;99.90
7654;DHT22;3869;48.406;10.774;2022-12-07T05:09:04;3.30;99.90
7654;DHT22;3869;48.406;10.774;2022-12-07T05:11:33;3.20;99.90
7654;DHT22;3869;48.406;10.774;2022-12-07T05:14:11;3.10;99.90
7654;DHT22;3869;48.406;10.774;2022-12-07T05:16:40;3.10;99.90
7654;DHT22;3869;48.406;10.774;2022-12-07T05:19:09;3.10;99.90
7654;DHT22;3869;48.406;10.774;2022-12-07T05:21:38;3.10;99.90
7654;DHT22;3869;48.406;10.774;2022-12-07T05:24:07;3.20;99.90
7654;DHT22;3869;48.406;10.774;2022-12-07T05:26:37;3.20;99.90
7654;DHT22;3869;48.406;10.774;2022-12-07T05:29:05;3.20;99.90
7654;DHT22;3869;48.406;10.774;2022-12-07T05:31:33;3.20;99.90
7654;DHT22;3869;48.406;10.774;2022-12-07T05:34:01;3.10;99.90
7654;DHT22;3869;48.406;10.774;2022-12-07T05:36:29;3.20;99.90
7654;DHT22;3869;48.406;10.774;2022-12-07T05:38:59;3.20;99.90
7654;DHT22;3869;48.406;10.774;2022-12-07T05:41:27;3.20;99.90
7654;DHT22;3869;48.406;10.774;2022-12-07T05:44:13;3.20;99.90
7654;DHT22;3869;48.406;10.774;2022-12-07T05:46:41;3.10;99.90
7654;DHT22;3869;48.406;10.774;2022-12-07T05:49:09;3.10;99.90
7654;DHT22;3869;48.406;10.774;2022-12-07T05:51:37;3.10;99.90
7654;DHT22;3869;48.406;10.774;2022-12-07T05:54:05;3.10;99.90
7654;DHT22;3869;48.406;10.774;2022-12-07T05:56:33;3.10;99.90
7654;DHT22;3869;48.406;10.774;2022-12-07T05:59:01;3.10;99.90
7654;DHT22;3869;48.406;10.774;2022-12-07T06:01:48;3.10;99.90
7654;DHT22;3869;48.406;10.774;2022-12-07T06:04:17;3.00;99.90
7654;DHT22;3869;48.406;10.774;2022-12-07T06:06:46;3.00;99.90
7654;DHT22;3869;48.406;10.774;2022-12-07T06:09:14;3.00;99.90
7654;DHT22;3869;48.406;10.774;2022-12-07T06:11:42;2.90;99.90
7654;DHT22;3869;48.406;10.774;2022-12-07T06:14:27;2.90;99.90
7654;DHT22;3869;48.406;10.774;2022-12-07T06:16:57;2.90;99.90
7654;DHT22;3869;48.406;10.774;2022-12-07T06:19:25;2.90;99.90
7654;DHT22;3869;48.406;10.774;2022-12-07T06:21:54;2.90;99.90
7654;DHT22;3869;48.406;10.774;2022-12-07T06:24:22;2.90;99.90
7654;DHT22;3869;48.406;10.774;2022-12-07T06:26:50;2.80;99.90
7654;DHT22;3869;48.406;10.774;2022-12-07T06:29:18;2.80;99.90
7654;DHT22;3869;48.406;10.774;2022-12-07T06:31:46;2.70;99.90
7654;DHT22;3869;48.406;10.774;2022-12-07T06:34:17;2.60;99.90
7654;DHT22;3869;48.406;10.774;2022-12-07T06:36:46;2.60;99.90
7654;DHT22;3869;48.406;10.774;2022-12-07T06:39:18;2.50;99.90
7654;DHT22;3869;48.406;10.774;2022-12-07T06:41:46;2.50;99.90
7654;DHT22;3869;48.406;10.774;2022-12-07T06:44:14;2.50;99.90
7654;DHT22;3869;48.406;10.774;2022-12-07T06:46:42;2.40;99.90
7654;DHT22;3869;48.406;10.774;2022-12-07T06:49:10;2.40;99.90
7654;DHT22;3869;48.406;10.774;2022-12-07T06:51:40;2.30;99.90
7654;DHT22;3869;48.406;10.774;2022-12-07T06:54:09;2.30;99.90
7654;DHT22;3869;48.406;10.774;2022-12-07T06:56:37;2.30;99.90
7654;DHT22;3869;48.406;10.774;2022-12-07T06:59:06;2.30;99.90
7654;DHT22;3869;48.406;10.774;2022-12-07T07:01:35;2.30;99.90
7654;DHT22;3869;48.406;10.774;2022-12-07T07:04:03;2.20;99.90
7654;DHT22;3869;48.406;10.774;2022-12-07T07:06:31;2.20;99.90
7654;DHT22;3869;48.406;10.774;2022-12-07T07:09:01;2.10;99.90
7654;DHT22;3869;48.406;10.774;2022-12-07T07:11:30;2.10;99.90
7654;DHT22;3869;48.406;10.774;2022-12-07T07:13:58;2.10;99.90
7654;DHT22;3869;48.406;10.774;2022-12-07T07:16:29;2.00;99.90
7654;DHT22;3869;48.406;10.774;2022-12-07T07:18:58;2.00;99.90
7654;DHT22;3869;48.406;10.774;2022-12-07T07:21:26;1.90;99.90
7654;DHT22;3869;48.406;10.774;2022-12-07T07:23:54;1.90;99.90
7654;DHT22;3869;48.406;10.774;2022-12-07T07:26:24;1.90;99.90
7654;DHT22;3869;48.406;10.774;2022-12-07T07:28:52;1.80;99.90
7654;DHT22;3869;48.406;10.774;2022-12-07T07:31:20;1.80;99.90
7654;DHT22;3869;48.406;10.774;2022-12-07T07:33:48;1.70;99.90
7654;DHT22;3869;48.406;10.774;2022-12-07T07:36:16;1.70;99.90
7654;DHT22;3869;48.406;10.774;2022-12-07T07:38:44;1.70;99.90
7654;DHT22;3869;48.406;10.774;2022-12-07T07:41:12;1.60;99.90
7654;DHT22;3869;48.406;10.774;2022-12-07T07:43:41;1.70;99.90
7654;DHT22;3869;48.406;10.774;2022-12-07T07:46:09;1.80;99.90
7654;DHT22;3869;48.406;10.774;2022-12-07T07:48:37;1.80;99.90
7654;DHT22;3869;48.406;10.774;2022-12-07T07:51:06;1.80;99.90
7654;DHT22;3869;48.406;10.774;2022-12-07T07:53:34;1.80;99.90
7654;DHT22;3869;48.406;10.774;2022-12-07T07:56:03;1.90;99.90
7654;DHT22;3869;48.406;10.774;2022-12-07T07:58:31;1.90;99.90
7654;DHT22;3869;48.406;10.774;2022-12-07T08:01:05;1.90;99.90
7654;DHT22;3869;48.406;10.774;2022-12-07T08:03:33;1.90;99.90
7654;DHT22;3869;48.406;10.774;2022-12-07T08:06:02;1.90;99.90
7654;DHT22;3869;48.406;10.774;2022-12-07T08:08:30;1.90;99.90
7654;DHT22;3869;48.406;10.774;2022-12-07T08:10:58;1.90;99.90
7654;DHT22;3869;48.406;10.774;2022-12-07T08:13:27;1.80;99.90
7654;DHT22;3869;48.406;10.774;2022-12-07T08:15:57;1.80;99.90
7654;DHT22;3869;48.406;10.774;2022-12-07T08:18:27;1.90;99.90
7654;DHT22;3869;48.406;10.774;2022-12-07T08:20:59;1.90;99.90
7654;DHT22;3869;48.406;10.774;2022-12-07T08:23:27;1.90;99.90
7654;DHT22;3869;48.406;10.774;2022-12-07T08:26:06;1.90;99.90
7654;DHT22;3869;48.406;10.774;2022-12-07T08:28:35;2.00;99.90
7654;DHT22;3869;48.406;10.774;2022-12-07T08:31:06;2.00;99.90
7654;DHT22;3869;48.406;10.774;2022-12-07T08:33:36;2.20;99.90
7654;DHT22;3869;48.406;10.774;2022-12-07T08:36:07;2.20;99.90
7654;DHT22;3869;48.406;10.774;2022-12-07T08:38:35;2.40;99.90
7654;DHT22;3869;48.406;10.774;2022-12-07T08:41:04;2.40;99.90
7654;DHT22;3869;48.406;10.774;2022-12-07T08:43:33;2.50;99.90
7654;DHT22;3869;48.406;10.774;2022-12-07T08:48:30;2.60;99.90
7654;DHT22;3869;48.406;10.774;2022-12-07T08:51:01;2.70;99.90
7654;DHT22;3869;48.406;10.774;2022-12-07T08:53:30;2.80;99.90
7654;DHT22;3869;48.406;10.774;2022-12-07T08:55:57;2.90;99.90
7654;DHT22;3869;48.406;10.774;2022-12-07T08:58:26;3.00;99.90
7654;DHT22;3869;48.406;10.774;2022-12-07T09:00:54;3.10;99.90
7654;DHT22;3869;48.406;10.774;2022-12-07T09:03:22;3.30;99.90
7654;DHT22;3869;48.406;10.774;2022-12-07T09:05:50;3.50;99.90
7654;DHT22;3869;48.406;10.774;2022-12-07T09:08:20;3.80;99.90
7654;DHT22;3869;48.406;10.774;2022-12-07T09:10:48;3.90;99.90
7654;DHT22;3869;48.406;10.774;2022-12-07T09:13:16;4.00;99.90
7654;DHT22;3869;48.406;10.774;2022-12-07T09:15:44;4.10;99.90
7654;DHT22;3869;48.406;10.774;2022-12-07T09:18:12;4.20;99.90
7654;DHT22;3869;48.406;10.774;2022-12-07T09:20:40;4.20;99.90
7654;DHT22;3869;48.406;10.774;2022-12-07T09:23:08;4.30;99.90
7654;DHT22;3869;48.406;10.774;2022-12-07T09:25:37;4.40;99.90
7654;DHT22;3869;48.406;10.774;2022-12-07T09:28:05;4.50;99.90
7654;DHT22;3869;48.406;10.774;2022-12-07T09:30:33;4.50;99.90
7654;DHT22;3869;48.406;10.774;2022-12-07T09:33:21;4.60;99.90
7654;DHT22;3869;48.406;10.774;2022-12-07T09:35:50;4.60;99.90
7654;DHT22;3869;48.406;10.774;2022-12-07T09:38:20;4.60;99.90
7654;DHT22;3869;48.406;10.774;2022-12-07T09:40:49;4.60;99.90
7654;DHT22;3869;48.406;10.774;2022-12-07T09:43:19;4.50;99.90
7654;DHT22;3869;48.406;10.774;2022-12-07T09:45:50;4.50;99.90
7654;DHT22;3869;48.406;10.774;2022-12-07T09:48:21;4.50;99.90
7654;DHT22;3869;48.406;10.774;2022-12-07T09:50:51;4.60;99.90
7654;DHT22;3869;48.406;10.774;2022-12-07T09:53:25;4.60;99.90
7654;DHT22;3869;48.406;10.774;2022-12-07T09:55:56;4.60;99.90
7654;DHT22;3869;48.406;10.774;2022-12-07T09:58:25;4.60;99.90
7654;DHT22;3869;48.406;10.774;2022-12-07T10:00:56;4.60;99.90
7654;DHT22;3869;48.406;10.774;2022-12-07T10:03:26;4.60;99.90
7654;DHT22;3869;48.406;10.774;2022-12-07T10:05:55;4.60;99.90
7654;DHT22;3869;48.406;10.774;2022-12-07T10:08:25;4.70;99.90
7654;DHT22;3869;48.406;10.774;2022-12-07T10:10:55;4.70;99.90
7654;DHT22;3869;48.406;10.774;2022-12-07T10:13:36;4.80;99.90
7654;DHT22;3869;48.406;10.774;2022-12-07T10:16:05;4.80;99.90
7654;DHT22;3869;48.406;10.774;2022-12-07T10:18:35;4.90;99.90
7654;DHT22;3869;48.406;10.774;2022-12-07T10:21:12;4.80;99.90
7654;DHT22;3869;48.406;10.774;2022-12-07T10:23:42;4.90;99.90
7654;DHT22;3869;48.406;10.774;2022-12-07T10:26:33;4.90;99.90
7654;DHT22;3869;48.406;10.774;2022-12-07T10:29:12;5.00;99.90
7654;DHT22;3869;48.406;10.774;2022-12-07T10:31:42;5.00;99.90
7654;DHT22;3869;48.406;10.774;2022-12-07T10:34:20;5.10;99.90
7654;DHT22;3869;48.406;10.774;2022-12-07T10:36:50;5.10;99.90
7654;DHT22;3869;48.406;10.774;2022-12-07T10:39:20;5.10;99.90
7654;DHT22;3869;48.406;10.774;2022-12-07T10:41:58;5.10;99.90
7654;DHT22;3869;48.406;10.774;2022-12-07T10:44:27;5.00;99.90
7654;DHT22;3869;48.406;10.774;2022-12-07T10:47:05;5.00;99.90
7654;DHT22;3869;48.406;10.774;2022-12-07T10:49:59;5.00;99.90
7654;DHT22;3869;48.406;10.774;2022-12-07T10:52:44;5.10;99.90
7654;DHT22;3869;48.406;10.774;2022-12-07T10:55:21;5.10;99.90
7654;DHT22;3869;48.406;10.774;2022-12-07T10:58:03;5.10;99.90
7654;DHT22;3869;48.406;10.774;2022-12-07T11:00:39;5.10;99.90
7654;DHT22;3869;48.406;10.774;2022-12-07T11:03:41;5.20;99.90
7654;DHT22;3869;48.406;10.774;2022-12-07T11:06:20;5.20;99.90
7654;DHT22;3869;48.406;10.774;2022-12-07T11:12:10;5.20;99.90
7654;DHT22;3869;48.406;10.774;2022-12-07T11:14:46;5.20;99.90
7654;DHT22;3869;48.406;10.774;2022-12-07T11:17:20;5.20;99.90
7654;DHT22;3869;48.406;10.774;2022-12-07T11:20:00;5.20;99.90
7654;DHT22;3869;48.406;10.774;2022-12-07T11:22:38;5.20;99.90
7654;DHT22;3869;48.406;10.774;2022-12-07T11:25:20;5.10;99.90
7654;DHT22;3869;48.406;10.774;2022-12-07T11:28:04;5.10;99.90
7654;DHT22;3869;48.406;10.774;2022-12-07T11:30:40;5.10;99.90
7654;DHT22;3869;48.406;10.774;2022-12-07T11:33:17;5.10;99.90
7654;DHT22;3869;48.406;10.774;2022-12-07T11:35:57;5.10;99.90
7654;DHT22;3869;48.406;10.774;2022-12-07T11:38:36;5.30;99.90
7654;DHT22;3869;48.406;10.774;2022-12-07T11:41:06;5.30;99.90
7654;DHT22;3869;48.406;10.774;2022-12-07T11:43:54;5.40;99.90
7654;DHT22;3869;48.406;10.774;2022-12-07T11:46:27;5.40;99.90
7654;DHT22;3869;48.406;10.774;2022-12-07T11:49:03;5.50;99.90
7654;DHT22;3869;48.406;10.774;2022-12-07T11:51:37;5.50;99.90
7654;DHT22;3869;48.406;10.774;2022-12-07T11:54:14;5.40;99.90
7654;DHT22;3869;48.406;10.774;2022-12-07T11:56:45;5.40;99.90
7654;DHT22;3869;48.406;10.774;2022-12-07T11:59:19;5.30;99.90
7654;DHT22;3869;48.406;10.774;2022-12-07T12:01:56;5.20;99.90
7654;DHT22;3869;48.406;10.774;2022-12-07T12:04:34;5.20;99.90
7654;DHT22;3869;48.406;10.774;2022-12-07T12:07:06;5.10;99.90
7654;DHT22;3869;48.406;10.774;2022-12-07T12:09:57;5.10;99.90
7654;DHT22;3869;48.406;10.774;2022-12-07T12:12:39;5.20;99.90
7654;DHT22;3869;48.406;10.774;2022-12-07T12:15:42;5.20;99.90
7654;DHT22;3869;48.406;10.774;2022-12-07T12:18:29;5.30;99.90
7654;DHT22;3869;48.406;10.774;2022-12-07T12:21:02;5.30;99.90
7654;DHT22;3869;48.406;10.774;2022-12-07T12:23:38;5.40;99.90
7654;DHT22;3869;48.406;10.774;2022-12-07T12:26:14;5.40;99.90
7654;DHT22;3869;48.406;10.774;2022-12-07T12:28:52;5.50;99.90
7654;DHT22;3869;48.406;10.774;2022-12-07T12:31:32;5.50;99.90
7654;DHT22;3869;48.406;10.774;2022-12-07T12:36:48;5.40;99.90
7654;DHT22;3869;48.406;10.774;2022-12-07T12:39:16;5.30;99.90
7654;DHT22;3869;48.406;10.774;2022-12-07T12:41:54;5.30;99.90
7654;DHT22;3869;48.406;10.774;2022-12-07T12:44:45;5.30;99.90
7654;DHT22;3869;48.406;10.774;2022-12-07T12:50:28;5.10;99.90
7654;DHT22;3869;48.406;10.774;2022-12-07T12:53:16;5.10;99.90
7654;DHT22;3869;48.406;10.774;2022-12-07T12:59:22;5.00;99.90
7654;DHT22;3869;48.406;10.774;2022-12-07T13:01:51;5.00;99.90
7654;DHT22;3869;48.406;10.774;2022-12-07T13:04:34;5.00;99.90
7654;DHT22;3869;48.406;10.774;2022-12-07T13:07:12;5.10;99.90
7654;DHT22;3869;48.406;10.774;2022-12-07T13:09:44;5.10;99.90
7654;DHT22;3869;48.406;10.774;2022-12-07T13:12:14;5.10;99.90
7654;DHT22;3869;48.406;10.774;2022-12-07T13:14:56;5.20;99.90
7654;DHT22;3869;48.406;10.774;2022-12-07T13:17:59;5.30;99.90
7654;DHT22;3869;48.406;10.774;2022-12-07T13:20:54;5.30;99.90
7654;DHT22;3869;48.406;10.774;2022-12-07T13:23:29;5.30;99.90
7654;DHT22;3869;48.406;10.774;2022-12-07T13:26:07;5.30;99.90
7654;DHT22;3869;48.406;10.774;2022-12-07T13:28:44;5.40;99.90
7654;DHT22;3869;48.406;10.774;2022-12-07T13:31:26;5.40;99.90
7654;DHT22;3869;48.406;10.774;2022-12-07T13:33:56;5.30;99.90
7654;DHT22;3869;48.406;10.774;2022-12-07T13:36:25;5.30;99.90
7654;DHT22;3869;48.406;10.774;2022-12-07T13:38:57;5.30;99.90
7654;DHT22;3869;48.406;10.774;2022-12-07T13:41:26;5.40;99.90
7654;DHT22;3869;48.406;10.774;2022-12-07T13:44:01;5.40;99.90
7654;DHT22;3869;48.406;10.774;2022-12-07T13:46:41;5.40;99.90
7654;DHT22;3869;48.406;10.774;2022-12-07T13:49:19;5.30;99.90
7654;DHT22;3869;48.406;10.774;2022-12-07T13:51:48;5.40;99.90
7654;DHT22;3869;48.406;10.774;2022-12-07T13:54:18;5.40;99.90
7654;DHT22;3869;48.406;10.774;2022-12-07T13:56:49;5.60;99.90
7654;DHT22;3869;48.406;10.774;2022-12-07T13:59:19;5.50;99.90
7654;DHT22;3869;48.406;10.774;2022-12-07T14:01:50;5.50;99.90
7654;DHT22;3869;48.406;10.774;2022-12-07T14:04:28;5.50;99.90
7654;DHT22;3869;48.406;10.774;2022-12-07T14:06:57;5.40;99.90
7654;DHT22;3869;48.406;10.774;2022-12-07T14:09:28;5.40;99.90
7654;DHT22;3869;48.406;10.774;2022-12-07T14:11:57;5.40;99.90
7654;DHT22;3869;48.406;10.774;2022-12-07T14:14:29;5.50;99.90
7654;DHT22;3869;48.406;10.774;2022-12-07T14:17:12;5.50;99.90
7654;DHT22;3869;48.406;10.774;2022-12-07T14:19:51;5.50;99.90
7654;DHT22;3869;48.406;10.774;2022-12-07T14:22:30;5.50;99.90
7654;DHT22;3869;48.406;10.774;2022-12-07T14:25:09;5.50;99.90
7654;DHT22;3869;48.406;10.774;2022-12-07T14:27:46;5.50;99.90
7654;DHT22;3869;48.406;10.774;2022-12-07T14:30:16;5.40;99.90
7654;DHT22;3869;48.406;10.774;2022-12-07T14:32:45;5.30;99.90
7654;DHT22;3869;48.406;10.774;2022-12-07T14:35:16;5.30;99.90
7654;DHT22;3869;48.406;10.774;2022-12-07T14:37:47;5.30;99.90
7654;DHT22;3869;48.406;10.774;2022-12-07T14:40:19;5.40;99.90
7654;DHT22;3869;48.406;10.774;2022-12-07T14:42:50;5.40;99.90
7654;DHT22;3869;48.406;10.774;2022-12-07T14:45:21;5.30;99.90
7654;DHT22;3869;48.406;10.774;2022-12-07T14:47:49;5.20;99.90
7654;DHT22;3869;48.406;10.774;2022-12-07T14:50:42;5.20;99.90
7654;DHT22;3869;48.406;10.774;2022-12-07T14:53:34;5.10;99.90
7654;DHT22;3869;48.406;10.774;2022-12-07T14:56:05;5.00;99.90
7654;DHT22;3869;48.406;10.774;2022-12-07T14:58:33;4.90;99.90
7654;DHT22;3869;48.406;10.774;2022-12-07T15:01:01;4.90;99.90
7654;DHT22;3869;48.406;10.774;2022-12-07T15:03:29;4.80;99.90
7654;DHT22;3869;48.406;10.774;2022-12-07T15:05:57;4.90;99.90
7654;DHT22;3869;48.406;10.774;2022-12-07T15:08:25;4.90;99.90
7654;DHT22;3869;48.406;10.774;2022-12-07T15:10:54;4.90;99.90
7654;DHT22;3869;48.406;10.774;2022-12-07T15:13:23;4.90;99.90
7654;DHT22;3869;48.406;10.774;2022-12-07T15:16:10;4.90;99.90
7654;DHT22;3869;48.406;10.774;2022-12-07T15:18:39;4.90;99.90
7654;DHT22;3869;48.406;10.774;2022-12-07T15:21:24;4.90;99.90
7654;DHT22;3869;48.406;10.774;2022-12-07T15:23:53;4.80;99.90
7654;DHT22;3869;48.406;10.774;2022-12-07T15:26:21;4.80;99.90
7654;DHT22;3869;48.406;10.774;2022-12-07T15:28:52;4.80;99.90
7654;DHT22;3869;48.406;10.774;2022-12-07T15:31:20;4.80;99.90
7654;DHT22;3869;48.406;10.774;2022-12-07T15:34:08;4.70;99.90
7654;DHT22;3869;48.406;10.774;2022-12-07T15:36:36;4.60;99.90
7654;DHT22;3869;48.406;10.774;2022-12-07T15:39:04;4.60;99.90
7654;DHT22;3869;48.406;10.774;2022-12-07T15:41:41;4.60;99.90
7654;DHT22;3869;48.406;10.774;2022-12-07T15:44:12;4.60;99.90
7654;DHT22;3869;48.406;10.774;2022-12-07T15:46:57;4.60;99.90
7654;DHT22;3869;48.406;10.774;2022-12-07T15:49:25;4.60;99.90
7654;DHT22;3869;48.406;10.774;2022-12-07T15:51:54;4.50;99.90
7654;DHT22;3869;48.406;10.774;2022-12-07T15:54:24;4.40;99.90
7654;DHT22;3869;48.406;10.774;2022-12-07T15:56:53;4.40;99.90
7654;DHT22;3869;48.406;10.774;2022-12-07T15:59:23;4.30;99.90
7654;DHT22;3869;48.406;10.774;2022-12-07T16:01:51;4.30;99.90
7654;DHT22;3869;48.406;10.774;2022-12-07T16:04:19;4.30;99.90
7654;DHT22;3869;48.406;10.774;2022-12-07T16:06:47;4.20;99.90
7654;DHT22;3869;48.406;10.774;2022-12-07T16:09:16;4.20;99.90
7654;DHT22;3869;48.406;10.774;2022-12-07T16:11:44;4.20;99.90
7654;DHT22;3869;48.406;10.774;2022-12-07T16:14:14;4.20;99.90
7654;DHT22;3869;48.406;10.774;2022-12-07T16:16:43;4.10;99.90
7654;DHT22;3869;48.406;10.774;2022-12-07T16:19:11;4.10;99.90
7654;DHT22;3869;48.406;10.774;2022-12-07T16:21:39;4.00;99.90
7654;DHT22;3869;48.406;10.774;2022-12-07T16:24:09;3.90;99.90
7654;DHT22;3869;48.406;10.774;2022-12-07T16:26:37;3.90;99.90
7654;DHT22;3869;48.406;10.774;2022-12-07T16:29:11;3.80;99.90
7654;DHT22;3869;48.406;10.774;2022-12-07T16:31:39;3.80;99.90
7654;DHT22;3869;48.406;10.774;2022-12-07T16:34:09;3.80;99.90
7654;DHT22;3869;48.406;10.774;2022-12-07T16:36:37;3.70;99.90
7654;DHT22;3869;48.406;10.774;2022-12-07T16:39:25;3.70;99.90
7654;DHT22;3869;48.406;10.774;2022-12-07T16:41:53;3.60;99.90
7654;DHT22;3869;48.406;10.774;2022-12-07T16:44:21;3.60;99.90
7654;DHT22;3869;48.406;10.774;2022-12-07T16:46:49;3.50;99.90
7654;DHT22;3869;48.406;10.774;2022-12-07T16:49:19;3.40;99.90
7654;DHT22;3869;48.406;10.774;2022-12-07T16:51:49;3.40;99.90